Time;durP1;ratioP1;P1;durP2;ratioP2;P2;SDS_P1;SDS_P2;PMS_P1;PMS_P2;Temp;Humidity;BMP_temperature;BMP_pressure;BME280_temperature;BME280_humidity;BME280_pressure;Samples;Min_cycle;Max_cycle;Signal;HPM_P1;HPM_P2
2020/12/09 00:01:53;;;;;;;29.75;17.70;;;22.40;31.00;;;;;;6176375;28;84420;-54
2020/12/09 00:04:53;;;;;;;32.05;18.67;;;22.40;31.00;;;;;;6182534;27;83347;-55
2020/12/09 00:07:54;;;;;;;28.67;17.35;;;22.40;30.90;;;;;;6182773;28;83526;-52
2020/12/09 00:10:55;;;;;;;30.13;17.88;;;22.40;31.00;;;;;;6178245;28;84268;-53
2020/12/09 00:13:55;;;;;;;32.42;19.63;;;22.40;30.90;;;;;;6181457;28;83275;-51
2020/12/09 00:16:56;;;;;;;26.30;16.00;;;22.40;30.90;;;;;;6194091;28;83423;-54
2020/12/09 00:19:56;;;;;;;28.40;16.30;;;22.40;31.60;;;;;;6182933;28;83726;-53
2020/12/09 00:22:56;;;;;;;30.42;17.05;;;22.40;30.90;;;;;;6167832;28;83723;-54
2020/12/09 00:25:57;;;;;;;29.33;17.33;;;22.40;30.90;;;;;;6160200;28;83410;-55
2020/12/09 00:28:58;;;;;;;28.35;17.67;;;22.40;30.80;;;;;;6188769;27;83206;-55
2020/12/09 00:31:58;;;;;;;28.65;16.45;;;22.30;31.00;;;;;;6172657;28;83887;-54
2020/12/09 00:34:59;;;;;;;26.88;15.18;;;22.30;31.00;;;;;;6174080;28;83505;-55
2020/12/09 00:37:59;;;;;;;27.10;15.98;;;22.30;31.20;;;;;;6173510;28;83605;-53
2020/12/09 00:41:00;;;;;;;26.83;16.30;;;22.30;30.90;;;;;;6178816;28;83301;-53
2020/12/09 00:44:00;;;;;;;28.15;16.92;;;22.30;31.10;;;;;;6174224;27;83453;-53
2020/12/09 00:47:01;;;;;;;27.23;16.75;;;22.30;31.00;;;;;;6179443;28;83414;-54
2020/12/09 00:53:14;;;;;;;27.10;15.20;;;22.30;31.20;;;;;;6181118;28;84501;-53
2020/12/09 00:56:14;;;;;;;28.17;15.93;;;22.30;30.90;;;;;;6168058;28;85976;-54
2020/12/09 00:59:15;;;;;;;26.50;15.75;;;22.30;31.10;;;;;;6174979;28;83533;-54
2020/12/09 01:02:16;;;;;;;27.10;15.40;;;22.30;30.90;;;;;;6177091;28;85285;-53
2020/12/09 01:05:17;;;;;;;25.63;16.25;;;22.30;30.80;;;;;;6178881;28;86005;-53
2020/12/09 01:08:17;;;;;;;28.27;16.30;;;22.30;30.90;;;;;;6190429;27;83034;-50
2020/12/09 01:11:18;;;;;;;28.02;15.50;;;22.30;31.00;;;;;;6162133;28;83905;-49
2020/12/09 01:14:18;;;;;;;24.90;15.45;;;22.20;30.80;;;;;;6150292;27;84088;-49
2020/12/09 01:17:19;;;;;;;26.13;16.02;;;22.20;30.80;;;;;;6149304;28;83586;-49
2020/12/09 01:20:19;;;;;;;27.45;16.60;;;22.20;30.70;;;;;;6150634;28;83101;-49
2020/12/09 01:23:20;;;;;;;27.83;16.25;;;22.20;31.00;;;;;;6147805;28;84125;-53
2020/12/09 01:26:20;;;;;;;24.73;15.45;;;22.20;30.90;;;;;;6149353;28;83646;-49
2020/12/09 01:29:21;;;;;;;24.55;14.43;;;22.20;30.90;;;;;;6162195;28;83478;-50
2020/12/09 01:32:22;;;;;;;25.00;14.60;;;22.20;31.00;;;;;;6176164;27;84405;-55
2020/12/09 01:35:22;;;;;;;27.02;13.90;;;22.20;31.20;;;;;;6161244;28;84312;-53
2020/12/09 01:38:23;;;;;;;23.65;14.23;;;22.20;31.10;;;;;;6150285;27;83574;-53
2020/12/09 01:41:23;;;;;;;22.13;13.75;;;22.20;31.00;;;;;;6155307;28;83111;-53
2020/12/09 01:44:24;;;;;;;24.80;14.43;;;22.20;31.10;;;;;;6162205;28;83267;-53
2020/12/09 01:47:25;;;;;;;21.20;13.43;;;22.20;31.10;;;;;;6176419;28;85860;-50
2020/12/09 01:50:25;;;;;;;23.65;13.18;;;22.20;31.10;;;;;;6179071;27;83395;-53
2020/12/09 01:53:26;;;;;;;21.08;13.45;;;22.20;31.20;;;;;;6164259;28;84163;-53
2020/12/09 01:56:26;;;;;;;24.15;13.65;;;22.20;31.20;;;;;;6169793;27;83540;-50
2020/12/09 01:59:27;;;;;;;23.65;13.63;;;22.20;31.20;;;;;;6183917;28;85265;-51
2020/12/09 02:02:27;;;;;;;23.48;14.02;;;22.20;31.20;;;;;;6176992;28;83172;-53
2020/12/09 02:05:28;;;;;;;22.05;13.40;;;22.20;31.20;;;;;;6186344;28;84501;-49
2020/12/09 02:08:29;;;;;;;20.10;12.45;;;22.20;31.30;;;;;;6182937;28;83274;-51
2020/12/09 02:11:29;;;;;;;20.30;12.50;;;22.20;31.30;;;;;;6192325;27;83312;-49
2020/12/09 02:14:30;;;;;;;21.90;13.43;;;22.20;31.90;;;;;;6184632;28;83161;-52
2020/12/09 02:17:30;;;;;;;20.85;12.27;;;22.20;31.30;;;;;;6185288;27;83343;-51
2020/12/09 02:20:31;;;;;;;19.58;11.32;;;22.20;31.30;;;;;;6172534;28;83554;-53
2020/12/09 02:23:31;;;;;;;22.17;11.95;;;22.20;31.30;;;;;;6170259;28;83524;-51
2020/12/09 02:26:32;;;;;;;21.20;11.82;;;22.20;31.30;;;;;;6178633;28;84254;-49
2020/12/09 02:29:33;;;;;;;18.75;11.85;;;22.20;31.30;;;;;;6183226;28;83166;-51
2020/12/09 02:32:33;;;;;;;19.33;11.98;;;22.20;31.30;;;;;;6180536;28;85777;-50
2020/12/09 02:35:34;;;;;;;19.88;11.63;;;22.10;31.20;;;;;;6180867;27;83449;-50
2020/12/09 02:38:35;;;;;;;16.88;10.90;;;22.10;31.30;;;;;;6177622;28;83580;-50
2020/12/09 02:41:35;;;;;;;19.35;11.75;;;22.10;31.30;;;;;;6176681;28;83100;-49
2020/12/09 02:44:36;;;;;;;18.50;11.60;;;22.10;31.40;;;;;;6176546;28;83416;-50
2020/12/09 02:47:36;;;;;;;17.77;11.50;;;22.10;31.20;;;;;;6185468;28;83098;-52
2020/12/09 02:50:37;;;;;;;17.10;11.10;;;22.10;31.30;;;;;;6175002;28;87084;-48
2020/12/09 02:53:37;;;;;;;18.17;11.13;;;22.10;31.40;;;;;;6168393;28;83074;-50
2020/12/09 02:56:38;;;;;;;19.65;11.45;;;22.10;31.50;;;;;;6177156;28;83101;-48
2020/12/09 02:59:38;;;;;;;18.15;11.43;;;22.10;31.40;;;;;;6187164;28;85414;-50
2020/12/09 03:02:39;;;;;;;17.85;11.73;;;22.10;31.50;;;;;;6175166;28;85205;-48
2020/12/09 03:05:40;;;;;;;19.05;11.57;;;22.10;31.20;;;;;;6157535;28;84895;-48
2020/12/09 03:08:40;;;;;;;17.85;11.43;;;22.00;31.30;;;;;;6170096;28;83322;-49
2020/12/09 03:11:41;;;;;;;17.98;11.05;;;22.10;31.20;;;;;;6180498;28;83695;-48
2020/12/09 03:14:41;;;;;;;17.45;10.95;;;22.10;31.20;;;;;;6180148;28;84412;-48
2020/12/09 03:17:42;;;;;;;17.35;10.73;;;22.10;31.20;;;;;;6177228;27;83576;-49
2020/12/09 03:20:45;;;;;;;19.38;11.93;;;22.10;31.20;;;;;;6178701;28;83401;-50
2020/12/09 03:23:45;;;;;;;18.25;10.35;;;22.10;31.20;;;;;;6176377;28;83461;-49
2020/12/09 03:26:46;;;;;;;18.92;11.45;;;22.00;31.20;;;;;;6177019;27;85905;-49
2020/12/09 03:29:47;;;;;;;16.35;10.77;;;22.00;31.20;;;;;;6178793;28;83325;-51
2020/12/09 03:32:48;;;;;;;21.23;11.85;;;22.00;31.10;;;;;;6182807;28;83785;-49
2020/12/09 03:35:48;;;;;;;17.42;10.93;;;22.00;31.10;;;;;;6183387;28;85884;-50
2020/12/09 03:38:49;;;;;;;18.10;11.20;;;22.00;30.80;;;;;;6187733;27;83848;-51
2020/12/09 03:41:49;;;;;;;17.60;10.80;;;22.00;30.90;;;;;;6187261;28;83147;-50
2020/12/09 03:44:50;;;;;;;17.33;10.15;;;22.00;31.30;;;;;;6185552;28;82903;-49
2020/12/09 03:47:50;;;;;;;17.73;10.85;;;22.00;30.70;;;;;;6162340;28;83558;-52
2020/12/09 03:50:51;;;;;;;17.92;11.27;;;22.00;30.70;;;;;;6170243;28;83544;-49
2020/12/09 03:53:52;;;;;;;19.90;11.00;;;22.00;30.70;;;;;;6185747;28;82915;-50
2020/12/09 03:56:52;;;;;;;17.80;10.93;;;22.00;30.70;;;;;;6162890;28;87178;-53
2020/12/09 03:59:53;;;;;;;22.50;10.88;;;22.00;30.60;;;;;;6172886;28;83163;-52
2020/12/09 04:02:53;;;;;;;16.45;10.07;;;22.00;31.20;;;;;;6186853;28;85679;-50
2020/12/09 04:05:54;;;;;;;15.43;10.38;;;22.00;30.60;;;;;;6165294;28;82837;-49
2020/12/09 04:08:54;;;;;;;17.23;10.85;;;22.00;31.20;;;;;;6172891;28;83428;-50
2020/12/09 04:11:55;;;;;;;16.63;9.30;;;22.00;30.70;;;;;;6185638;28;84072;-51
2020/12/09 04:14:56;;;;;;;15.63;9.98;;;22.00;31.70;;;;;;6197237;28;84700;-50
2020/12/09 04:17:56;;;;;;;13.85;9.75;;;22.00;31.20;;;;;;6190100;27;83320;-53
2020/12/09 04:20:57;;;;;;;16.52;10.52;;;22.00;31.20;;;;;;6195872;28;83058;-53
2020/12/09 04:23:57;;;;;;;16.15;9.27;;;22.00;31.40;;;;;;6160370;28;83448;-49
2020/12/09 04:26:58;;;;;;;13.50;9.68;;;22.00;31.50;;;;;;6150234;28;84238;-52
2020/12/09 04:29:58;;;;;;;14.57;9.57;;;22.00;31.70;;;;;;6160654;28;80533;-50
2020/12/09 04:32:59;;;;;;;15.27;9.50;;;22.00;31.80;;;;;;6157089;28;80974;-49
2020/12/09 04:35:59;;;;;;;13.52;9.05;;;22.00;31.80;;;;;;6158248;28;80893;-51
2020/12/09 04:39:00;;;;;;;14.93;9.63;;;22.00;31.80;;;;;;6180703;28;82447;-51
2020/12/09 04:42:01;;;;;;;14.07;9.60;;;21.90;31.70;;;;;;6170140;28;80499;-51
2020/12/09 04:45:01;;;;;;;18.98;9.27;;;22.00;31.80;;;;;;6171883;28;80551;-49
2020/12/09 04:48:02;;;;;;;17.15;10.95;;;22.00;31.80;;;;;;6161959;28;80728;-49
2020/12/09 04:51:02;;;;;;;16.38;9.90;;;22.00;31.70;;;;;;6168609;28;83234;-49
2020/12/09 04:54:03;;;;;;;15.13;10.57;;;21.90;31.60;;;;;;6171827;28;82960;-49
2020/12/09 04:57:03;;;;;;;17.40;10.63;;;21.90;31.40;;;;;;6155356;28;83174;-50
2020/12/09 05:00:04;;;;;;;16.38;10.32;;;21.90;31.40;;;;;;6178063;28;84013;-51
2020/12/09 05:03:05;;;;;;;15.15;9.60;;;22.00;31.60;;;;;;6177155;28;84112;-54
2020/12/09 05:06:05;;;;;;;16.20;10.82;;;21.90;31.30;;;;;;6185916;28;82803;-49
2020/12/09 05:09:06;;;;;;;15.82;10.30;;;21.90;31.60;;;;;;6180173;27;82955;-50
2020/12/09 05:12:06;;;;;;;14.48;9.18;;;21.90;31.60;;;;;;6177156;28;83102;-52
2020/12/09 05:15:07;;;;;;;14.90;9.52;;;21.90;31.80;;;;;;6176809;28;83037;-49
2020/12/09 05:18:08;;;;;;;18.30;10.95;;;21.90;31.80;;;;;;6170210;28;81460;-50
2020/12/09 05:21:08;;;;;;;17.05;9.85;;;21.90;31.60;;;;;;6184108;28;83177;-48
2020/12/09 05:24:09;;;;;;;16.33;10.48;;;21.90;31.70;;;;;;6169198;28;82671;-50
2020/12/09 05:27:10;;;;;;;16.73;10.43;;;21.90;31.90;;;;;;6179048;28;83631;-52
2020/12/09 05:30:10;;;;;;;15.98;10.45;;;22.00;31.40;;;;;;6180838;27;83651;-53
2020/12/09 05:33:11;;;;;;;15.27;9.73;;;22.10;31.50;;;;;;6156013;28;83335;-51
2020/12/09 05:36:11;;;;;;;18.65;10.82;;;22.10;32.10;;;;;;6149600;28;81715;-52
2020/12/09 05:39:12;;;;;;;17.73;10.38;;;22.20;31.70;;;;;;6153153;28;83037;-50
2020/12/09 05:42:12;;;;;;;16.88;10.93;;;22.30;31.70;;;;;;6158481;27;83246;-49
2020/12/09 05:45:13;;;;;;;15.75;10.05;;;22.40;31.90;;;;;;6176223;28;95405;-49
2020/12/09 05:48:13;;;;;;;14.45;10.00;;;22.40;32.60;;;;;;6167319;28;83615;-50
2020/12/09 05:51:14;;;;;;;19.33;11.13;;;22.50;32.70;;;;;;6184635;28;83521;-53
2020/12/09 05:54:14;;;;;;;15.50;9.93;;;22.50;32.70;;;;;;6159416;28;83634;-50
2020/12/09 05:57:15;;;;;;;14.98;10.52;;;22.50;32.60;;;;;;6166158;28;83908;-50
2020/12/09 06:00:16;;;;;;;23.08;11.27;;;22.60;32.60;;;;;;6174675;28;83374;-49
2020/12/09 06:03:17;;;;;;;21.67;11.52;;;22.60;32.50;;;;;;6178962;28;84426;-49
2020/12/09 06:06:17;;;;;;;24.40;13.98;;;22.60;32.60;;;;;;6173226;27;84044;-53
2020/12/09 06:09:18;;;;;;;23.13;12.43;;;22.70;32.60;;;;;;6176545;28;86166;-52
2020/12/09 06:12:19;;;;;;;19.23;12.15;;;22.70;32.20;;;;;;6176039;27;85023;-53
2020/12/09 06:15:19;;;;;;;19.95;11.00;;;22.70;32.00;;;;;;6172822;28;83852;-53
2020/12/09 06:18:20;;;;;;;24.02;12.15;;;22.80;32.70;;;;;;6153516;28;83556;-52
2020/12/09 06:21:20;;;;;;;19.83;12.30;;;22.80;32.50;;;;;;6146096;28;83599;-51
2020/12/09 06:24:21;;;;;;;23.73;13.27;;;22.90;32.90;;;;;;6165127;28;83236;-48
2020/12/09 06:27:21;;;;;;;18.55;11.82;;;22.90;32.90;;;;;;6152441;28;83535;-50
2020/12/09 06:30:22;;;;;;;20.42;11.90;;;22.90;33.20;;;;;;6146228;28;83287;-49
2020/12/09 06:33:22;;;;;;;18.23;11.77;;;23.00;33.20;;;;;;6171658;28;83248;-49
2020/12/09 06:36:23;;;;;;;17.88;11.38;;;22.90;33.40;;;;;;6155649;28;85743;-49
2020/12/09 06:39:24;;;;;;;19.77;12.18;;;22.90;33.10;;;;;;6151615;28;83587;-50
2020/12/09 06:42:24;;;;;;;20.27;12.05;;;22.90;33.20;;;;;;6146630;28;83097;-51
2020/12/09 06:45:25;;;;;;;20.83;12.38;;;22.90;33.20;;;;;;6145759;28;83535;-49
2020/12/09 06:48:25;;;;;;;20.63;12.43;;;22.80;32.80;;;;;;6178529;28;84171;-49
2020/12/09 06:51:25;;;;;;;19.83;12.73;;;22.80;32.80;;;;;;6175466;28;84030;-48
2020/12/09 06:54:26;;;;;;;19.00;12.38;;;22.80;32.70;;;;;;6165538;28;83209;-48
2020/12/09 06:57:27;;;;;;;19.90;12.05;;;22.70;32.90;;;;;;6175159;28;83384;-52
2020/12/09 07:00:27;;;;;;;28.77;11.80;;;22.80;32.70;;;;;;6174423;28;86279;-55
2020/12/09 07:03:28;;;;;;;24.75;11.55;;;22.70;32.90;;;;;;6176583;28;83322;-54
2020/12/09 07:06:28;;;;;;;22.55;12.55;;;22.80;32.90;;;;;;6170162;27;85837;-55
2020/12/09 07:09:29;;;;;;;29.23;13.80;;;22.70;33.30;;;;;;6174474;28;83703;-52
2020/12/09 07:12:29;;;;;;;22.73;12.52;;;22.70;32.40;;;;;;6173558;28;83548;-55
2020/12/09 07:15:30;;;;;;;18.70;11.95;;;22.60;32.70;;;;;;6172573;28;83385;-54
2020/12/09 07:18:32;;;;;;;19.55;12.98;;;22.60;32.30;;;;;;6173815;27;83767;-54
2020/12/09 07:21:33;;;;;;;20.80;12.60;;;22.60;32.40;;;;;;6170416;28;90529;-54
2020/12/09 07:24:33;;;;;;;23.05;12.77;;;22.50;32.10;;;;;;6172495;27;83380;-55
2020/12/09 07:27:36;;;;;;;19.92;13.10;;;22.50;31.40;;;;;;6149311;28;83849;-55
2020/12/09 07:30:37;;;;;;;23.92;12.35;;;22.50;31.90;;;;;;6147087;28;83716;-54
2020/12/09 07:33:37;;;;;;;21.05;13.00;;;22.50;31.80;;;;;;6148640;28;84891;-55
2020/12/09 07:36:38;;;;;;;19.40;11.38;;;22.50;31.70;;;;;;6172707;28;83602;-53
2020/12/09 07:39:39;;;;;;;21.10;12.18;;;22.50;32.10;;;;;;6167773;28;85516;-55
2020/12/09 07:42:39;;;;;;;23.60;13.02;;;22.50;32.20;;;;;;6174804;28;83136;-51
2020/12/09 07:45:40;;;;;;;20.30;12.18;;;22.50;33.00;;;;;;6174857;27;83615;-55
2020/12/09 07:48:40;;;;;;;24.67;13.50;;;22.50;32.60;;;;;;6168518;28;83390;-52
2020/12/09 07:51:41;;;;;;;22.25;12.88;;;22.40;32.70;;;;;;6139425;28;83721;-54
2020/12/09 07:54:41;;;;;;;21.95;13.75;;;22.40;33.00;;;;;;6138895;28;83616;-51
2020/12/09 07:57:42;;;;;;;22.88;12.20;;;22.40;33.00;;;;;;6149667;28;84154;-54
2020/12/09 08:00:43;;;;;;;21.95;13.40;;;22.40;33.00;;;;;;6179843;28;84268;-54
2020/12/09 08:03:43;;;;;;;20.83;13.30;;;22.30;33.00;;;;;;6152659;28;86318;-51
2020/12/09 08:06:44;;;;;;;24.05;13.63;;;22.30;33.10;;;;;;6145863;28;83747;-54
2020/12/09 08:09:44;;;;;;;27.48;13.48;;;22.40;33.50;;;;;;6147694;28;83519;-52
2020/12/09 08:12:45;;;;;;;24.52;14.05;;;22.40;34.30;;;;;;6146835;28;83565;-53
2020/12/09 08:15:45;;;;;;;25.67;12.95;;;22.40;34.20;;;;;;6171004;28;83481;-55
2020/12/09 08:18:47;;;;;;;28.50;14.23;;;22.40;34.50;;;;;;6180861;28;83801;-58
2020/12/09 08:21:48;;;;;;;23.85;13.63;;;22.40;34.00;;;;;;6151574;28;83089;-53
2020/12/09 08:24:48;;;;;;;23.90;13.35;;;22.40;35.20;;;;;;6147116;28;83272;-51
2020/12/09 08:27:49;;;;;;;22.67;13.57;;;22.40;35.20;;;;;;6150181;28;84304;-53
2020/12/09 08:30:49;;;;;;;29.63;14.13;;;22.40;36.30;;;;;;6150030;28;83555;-54
2020/12/09 08:33:50;;;;;;;20.40;13.02;;;22.40;36.40;;;;;;6171543;28;83541;-54
2020/12/09 08:36:51;;;;;;;20.63;13.13;;;22.50;36.40;;;;;;6176261;28;83983;-50
2020/12/09 08:39:51;;;;;;;22.58;14.43;;;22.50;36.70;;;;;;6172577;28;83231;-55
2020/12/09 08:42:52;;;;;;;21.13;12.63;;;22.50;37.00;;;;;;6173093;28;83210;-56
2020/12/09 08:45:52;;;;;;;23.63;12.90;;;22.50;37.50;;;;;;6168438;28;83528;-52
2020/12/09 08:48:53;;;;;;;19.38;13.10;;;22.50;37.30;;;;;;6173160;27;83381;-55
2020/12/09 08:51:53;;;;;;;23.42;12.85;;;22.50;37.00;;;;;;6173930;27;87043;-56
2020/12/09 08:54:54;;;;;;;20.30;12.57;;;22.60;36.90;;;;;;6170836;28;86618;-56
2020/12/09 08:57:54;;;;;;;20.88;12.95;;;22.60;36.90;;;;;;6171758;28;83254;-55
2020/12/09 09:00:55;;;;;;;22.70;13.48;;;22.60;36.10;;;;;;6172097;28;84061;-56
2020/12/09 09:04:04;;;;;;;20.55;12.50;;;22.60;35.70;;;;;;6172598;28;83975;-55
2020/12/09 09:07:04;;;;;;;19.40;12.57;;;22.60;35.50;;;;;;6170283;28;83793;-56
2020/12/09 09:10:05;;;;;;;19.95;12.07;;;22.60;34.80;;;;;;6168099;28;83113;-56
2020/12/09 09:13:06;;;;;;;18.33;11.88;;;22.70;35.00;;;;;;6170402;28;84067;-54
2020/12/09 09:16:07;;;;;;;18.70;11.55;;;22.70;34.90;;;;;;6150257;28;83391;-54
2020/12/09 09:19:08;;;;;;;21.75;12.88;;;22.70;34.50;;;;;;6172969;28;83280;-54
2020/12/09 09:22:08;;;;;;;21.70;12.90;;;22.60;34.10;;;;;;6167473;27;85761;-53
2020/12/09 09:25:09;;;;;;;22.92;12.70;;;22.60;33.70;;;;;;6163782;28;83968;-51
2020/12/09 09:28:10;;;;;;;21.85;13.18;;;22.60;33.70;;;;;;6151510;28;83425;-55
2020/12/09 09:31:11;;;;;;;22.63;12.65;;;22.50;33.40;;;;;;6173860;28;84088;-49
2020/12/09 09:34:11;;;;;;;21.02;13.55;;;22.50;33.10;;;;;;6151182;28;83737;-53
2020/12/09 09:37:12;;;;;;;20.33;13.23;;;22.50;33.30;;;;;;6141731;28;84215;-54
2020/12/09 09:40:13;;;;;;;20.27;12.90;;;22.50;33.70;;;;;;6151397;28;83120;-53
2020/12/09 09:43:13;;;;;;;19.38;13.13;;;22.40;34.00;;;;;;6172728;27;85409;-52
2020/12/09 09:46:14;;;;;;;19.88;13.30;;;22.40;35.50;;;;;;6171657;28;83331;-53
2020/12/09 09:49:15;;;;;;;23.90;13.38;;;22.40;34.90;;;;;;6172047;28;83159;-54
2020/12/09 09:52:15;;;;;;;22.35;13.68;;;22.50;34.60;;;;;;6171171;27;83285;-55
2020/12/09 09:55:16;;;;;;;22.77;13.63;;;22.40;34.10;;;;;;6170969;28;84031;-55
2020/12/09 09:58:16;;;;;;;21.70;13.50;;;22.40;33.90;;;;;;6171590;27;84351;-53
2020/12/09 10:01:17;;;;;;;19.80;12.95;;;22.40;33.80;;;;;;6170599;28;83214;-51
2020/12/09 10:04:17;;;;;;;21.63;13.02;;;22.50;33.90;;;;;;6170905;28;83466;-55
2020/12/09 10:07:18;;;;;;;19.20;12.98;;;22.60;33.70;;;;;;6172136;28;84835;-54
2020/12/09 10:10:18;;;;;;;18.42;12.75;;;22.70;33.50;;;;;;6176086;27;84134;-55
2020/12/09 10:13:19;;;;;;;21.33;13.60;;;22.80;33.20;;;;;;6179142;28;83411;-54
2020/12/09 10:16:22;;;;;;;21.30;13.30;;;22.90;32.80;;;;;;6182830;27;82745;-55
2020/12/09 10:19:23;;;;;;;21.20;13.38;;;22.90;32.40;;;;;;6177139;28;83227;-56
2020/12/09 10:22:24;;;;;;;20.33;13.48;;;23.00;32.00;;;;;;6153581;28;83590;-55
2020/12/09 10:25:24;;;;;;;20.23;13.13;;;23.10;32.00;;;;;;6175795;28;83319;-57
2020/12/09 10:28:25;;;;;;;21.95;13.82;;;23.10;31.70;;;;;;6175124;27;83574;-57
2020/12/09 10:31:25;;;;;;;19.92;12.38;;;23.10;31.40;;;;;;6174934;28;83159;-56
2020/12/09 10:34:26;;;;;;;19.67;12.90;;;23.10;31.30;;;;;;6175451;28;82967;-54
2020/12/09 10:37:26;;;;;;;20.38;12.95;;;23.20;31.10;;;;;;6176216;28;83448;-55
2020/12/09 10:40:27;;;;;;;20.98;12.98;;;23.20;31.10;;;;;;6176809;28;83240;-53
2020/12/09 10:43:27;;;;;;;22.23;14.05;;;23.20;31.70;;;;;;6175794;28;83777;-54
2020/12/09 10:46:28;;;;;;;20.90;13.45;;;23.20;30.90;;;;;;6176004;28;85888;-54
2020/12/09 10:49:32;;;;;;;19.67;13.60;;;23.30;30.90;;;;;;6174938;28;87332;-56
2020/12/09 10:52:33;;;;;;;22.83;14.98;;;23.30;30.70;;;;;;6181849;27;83909;-55
2020/12/09 10:55:33;;;;;;;20.48;13.32;;;23.30;30.50;;;;;;6180457;28;85562;-55
2020/12/09 10:58:34;;;;;;;24.20;15.48;;;23.30;30.20;;;;;;6167040;28;83218;-55
2020/12/09 11:01:34;;;;;;;21.50;14.45;;;23.30;30.30;;;;;;6155478;28;84174;-53
2020/12/09 11:04:35;;;;;;;30.60;16.05;;;23.30;30.30;;;;;;6177586;28;82962;-52
2020/12/09 11:07:35;;;;;;;27.77;15.35;;;23.30;30.80;;;;;;6173928;28;84426;-52
2020/12/09 11:10:36;;;;;;;24.15;16.08;;;23.30;30.80;;;;;;6151125;28;83104;-53
2020/12/09 11:13:36;;;;;;;25.55;15.63;;;23.30;30.90;;;;;;6161706;28;83074;-54
2020/12/09 11:16:37;;;;;;;31.60;17.42;;;23.30;31.10;;;;;;6167917;28;83284;-51
2020/12/09 11:19:37;;;;;;;31.02;17.77;;;23.30;31.20;;;;;;6168307;28;83630;-53
2020/12/09 11:22:38;;;;;;;40.58;20.02;;;23.20;31.30;;;;;;6153723;28;91198;-53
2020/12/09 11:25:38;;;;;;;37.47;18.55;;;23.20;31.90;;;;;;6146244;28;83053;-51
2020/12/09 11:28:39;;;;;;;30.25;18.75;;;23.20;31.80;;;;;;6156471;28;84208;-52
2020/12/09 11:31:40;;;;;;;40.22;19.35;;;23.20;32.30;;;;;;6165956;28;83416;-49
2020/12/09 11:34:40;;;;;;;36.47;19.27;;;23.10;32.10;;;;;;6148109;28;84182;-53
2020/12/09 11:37:41;;;;;;;41.50;20.52;;;23.10;33.30;;;;;;6153565;28;84406;-54
2020/12/09 11:40:42;;;;;;;38.78;20.98;;;23.10;34.90;;;;;;6171356;28;85734;-53
2020/12/09 11:43:45;;;;;;;40.83;20.70;;;23.10;35.60;;;;;;6168119;27;83735;-55
2020/12/09 11:46:46;;;;;;;39.95;21.50;;;23.10;33.90;;;;;;6154269;28;84223;-53
2020/12/09 11:49:46;;;;;;;36.80;21.13;;;23.10;34.00;;;;;;6178236;28;83919;-54
2020/12/09 11:52:47;;;;;;;39.03;22.20;;;23.10;34.20;;;;;;6170409;27;83994;-56
2020/12/09 11:55:48;;;;;;;48.20;26.00;;;23.10;35.60;;;;;;6183872;28;84593;-59
2020/12/09 11:58:48;;;;;;;49.55;25.27;;;23.10;36.20;;;;;;6162272;27;86447;-61
2020/12/09 12:01:49;;;;;;;43.13;23.05;;;23.10;37.00;;;;;;6156592;28;85882;-60
2020/12/09 12:04:52;;;;;;;41.80;22.60;;;23.10;36.80;;;;;;6170421;28;83341;-59
2020/12/09 12:07:53;;;;;;;43.17;22.73;;;23.10;37.00;;;;;;6172797;28;83661;-60
2020/12/09 12:10:53;;;;;;;41.25;22.08;;;23.10;37.00;;;;;;6172262;28;83369;-60
2020/12/09 12:13:54;;;;;;;41.88;21.38;;;23.10;36.90;;;;;;6171983;28;84137;-58
2020/12/09 12:16:54;;;;;;;38.05;20.70;;;23.10;37.40;;;;;;6165213;28;83223;-58
2020/12/09 12:19:55;;;;;;;43.67;22.23;;;23.10;37.10;;;;;;6148190;28;83444;-61
2020/12/09 12:22:56;;;;;;;41.88;20.85;;;23.00;36.90;;;;;;6155454;28;83184;-59
2020/12/09 12:25:57;;;;;;;32.08;18.95;;;23.00;37.10;;;;;;6172950;28;86383;-60
2020/12/09 12:28:58;;;;;;;39.97;18.80;;;23.00;36.90;;;;;;6167766;28;83370;-59
2020/12/09 12:31:58;;;;;;;33.78;19.13;;;23.00;36.80;;;;;;6161913;28;83589;-60
2020/12/09 12:34:59;;;;;;;34.42;17.95;;;23.00;36.50;;;;;;6159073;28;84125;-59
2020/12/09 12:37:59;;;;;;;35.50;19.15;;;23.00;36.50;;;;;;6163514;27;83398;-60
2020/12/09 12:41:00;;;;;;;34.17;19.08;;;22.90;36.30;;;;;;6146620;28;83884;-59
2020/12/09 12:44:01;;;;;;;37.05;19.95;;;22.90;36.20;;;;;;6146633;28;85751;-58
2020/12/09 12:47:01;;;;;;;41.97;19.23;;;22.90;36.30;;;;;;6157103;28;84100;-59
2020/12/09 12:50:02;;;;;;;37.80;18.83;;;22.90;36.10;;;;;;6171905;27;83498;-59
2020/12/09 12:53:02;;;;;;;37.67;19.77;;;22.90;36.00;;;;;;6169747;28;83550;-59
2020/12/09 12:56:03;;;;;;;37.47;20.52;;;22.90;35.90;;;;;;6165011;28;83488;-58
2020/12/09 12:59:04;;;;;;;37.55;18.98;;;22.90;35.90;;;;;;6174323;27;83533;-58
2020/12/09 13:02:04;;;;;;;37.72;18.13;;;22.90;35.80;;;;;;6170458;28;83199;-59
2020/12/09 13:05:05;;;;;;;37.83;18.83;;;22.80;35.70;;;;;;6172043;28;83822;-59
2020/12/09 13:08:05;;;;;;;34.85;17.63;;;22.80;35.80;;;;;;6171170;28;83353;-58
2020/12/09 13:11:06;;;;;;;35.97;18.90;;;22.80;35.70;;;;;;6167645;28;84389;-59
2020/12/09 13:14:07;;;;;;;37.40;18.95;;;22.80;35.50;;;;;;6172734;28;85199;-60
2020/12/09 13:17:07;;;;;;;34.35;18.20;;;22.80;35.50;;;;;;6170822;28;83149;-50
2020/12/09 13:20:08;;;;;;;35.72;17.17;;;22.70;35.10;;;;;;6179808;28;83350;-50
2020/12/09 13:23:09;;;;;;;31.60;17.75;;;22.70;35.60;;;;;;6171443;28;83564;-50
2020/12/09 13:26:10;;;;;;;30.95;17.85;;;22.70;35.40;;;;;;6172211;28;83296;-52
2020/12/09 13:29:10;;;;;;;31.70;16.77;;;22.70;35.50;;;;;;6172743;28;83254;-51
2020/12/09 13:32:11;;;;;;;34.15;17.30;;;22.70;35.10;;;;;;6162804;28;82893;-53
2020/12/09 13:35:13;;;;;;;27.85;17.55;;;22.80;35.10;;;;;;6157698;28;85944;-53
2020/12/09 13:38:13;;;;;;;31.15;17.10;;;22.80;34.80;;;;;;6173989;28;92094;-54
2020/12/09 13:41:14;;;;;;;32.30;16.13;;;22.90;34.30;;;;;;6171583;28;83260;-52
2020/12/09 13:44:14;;;;;;;28.77;16.75;;;22.90;34.60;;;;;;6174249;28;83219;-53
2020/12/09 13:47:15;;;;;;;26.15;15.35;;;22.90;34.00;;;;;;6169806;28;83327;-54
2020/12/09 13:50:15;;;;;;;28.92;15.73;;;23.00;34.00;;;;;;6173759;28;82970;-51
2020/12/09 13:53:16;;;;;;;26.80;16.45;;;23.00;33.80;;;;;;6173605;27;84889;-51
2020/12/09 13:56:17;;;;;;;25.58;16.00;;;23.10;33.80;;;;;;6172348;28;83576;-54
2020/12/09 13:59:17;;;;;;;28.60;16.38;;;23.10;33.70;;;;;;6172574;28;82862;-50
2020/12/09 14:02:18;;;;;;;23.83;15.07;;;23.10;34.10;;;;;;6171235;28;85226;-52
2020/12/09 14:05:19;;;;;;;23.30;14.30;;;23.10;33.90;;;;;;6172925;28;83456;-53
2020/12/09 14:08:19;;;;;;;28.65;16.50;;;23.10;33.90;;;;;;6172836;27;83538;-51
2020/12/09 14:11:20;;;;;;;25.63;14.55;;;23.20;34.10;;;;;;6162051;28;83782;-54
2020/12/09 14:14:21;;;;;;;27.13;15.82;;;23.20;34.50;;;;;;6161150;28;84088;-54
2020/12/09 14:17:22;;;;;;;25.95;15.02;;;23.20;34.10;;;;;;6166325;28;83434;-55
2020/12/09 14:20:22;;;;;;;26.55;15.15;;;23.20;34.00;;;;;;6168394;27;83057;-51
2020/12/09 14:23:23;;;;;;;23.17;15.05;;;23.20;34.10;;;;;;6174220;28;86571;-53
2020/12/09 14:26:24;;;;;;;26.40;14.68;;;23.20;34.00;;;;;;6172723;27;83685;-54
2020/12/09 14:29:24;;;;;;;21.58;15.45;;;23.20;34.10;;;;;;6173995;28;82908;-52
2020/12/09 14:32:25;;;;;;;27.67;15.52;;;23.20;33.90;;;;;;6170910;28;85317;-55
2020/12/09 14:35:26;;;;;;;26.23;15.48;;;23.20;33.90;;;;;;6169900;27;83450;-58
2020/12/09 14:38:27;;;;;;;24.10;16.13;;;23.20;34.40;;;;;;6169156;28;86006;-56
2020/12/09 14:41:27;;;;;;;24.75;14.63;;;23.20;34.80;;;;;;6170107;27;83066;-59
2020/12/09 14:44:28;;;;;;;23.25;15.10;;;23.30;35.10;;;;;;6168086;28;83427;-55
2020/12/09 14:47:28;;;;;;;21.70;14.40;;;23.30;34.70;;;;;;6172951;27;83546;-58
2020/12/09 14:50:30;;;;;;;27.10;14.93;;;23.30;35.60;;;;;;6168735;28;83700;-57
2020/12/09 14:53:30;;;;;;;25.08;15.60;;;23.30;34.90;;;;;;6169466;28;85125;-58
2020/12/09 14:56:31;;;;;;;24.13;15.10;;;23.30;34.90;;;;;;6174560;28;85100;-58
2020/12/09 14:59:32;;;;;;;23.48;15.38;;;23.30;34.80;;;;;;6171940;28;83868;-58
2020/12/09 15:02:40;;;;;;;22.40;14.55;;;23.30;34.70;;;;;;6176498;28;83289;-57
2020/12/09 15:05:40;;;;;;;22.92;15.05;;;23.30;34.60;;;;;;6172301;28;83931;-56
2020/12/09 15:08:44;;;;;;;24.52;14.85;;;23.30;34.30;;;;;;6173209;28;83602;-54
2020/12/09 15:11:44;;;;;;;23.55;15.43;;;23.30;34.00;;;;;;6159791;28;84264;-55
2020/12/09 15:14:45;;;;;;;26.27;15.75;;;23.30;33.70;;;;;;6150444;28;85550;-54
2020/12/09 15:17:46;;;;;;;24.73;16.25;;;23.20;33.40;;;;;;6159830;28;83638;-54
2020/12/09 15:20:46;;;;;;;23.83;15.25;;;23.20;33.10;;;;;;6148683;28;83205;-52